createdAt,value
2022-12-18T00:00:23.144Z,83.35
2022-12-18T00:00:55.254Z,83.82
2022-12-18T00:01:29.509Z,83.52
2022-12-18T00:02:04.768Z,83.50
2022-12-18T00:02:37.064Z,83.59
2022-12-18T00:03:09.364Z,84.01
2022-12-18T00:03:45.150Z,83.74
2022-12-18T00:04:22.547Z,84.16
2022-12-18T00:04:57.859Z,83.94
2022-12-18T00:05:30.014Z,84.09
2022-12-18T00:06:02.842Z,83.55
2022-12-18T00:06:38.562Z,83.94
2022-12-18T00:07:10.742Z,83.18
2022-12-18T00:07:42.864Z,83.54
2022-12-18T00:08:18.080Z,83.40
2022-12-18T00:08:50.447Z,83.59
2022-12-18T00:09:22.774Z,83.12
2022-12-18T00:09:59.619Z,83.35
2022-12-18T00:10:31.798Z,83.04
2022-12-18T00:11:07.116Z,83.18
2022-12-18T00:11:44.491Z,83.11
2022-12-18T00:13:11.193Z,83.43
2022-12-18T00:13:44.158Z,83.34
2022-12-18T00:14:16.464Z,83.69
2022-12-18T00:14:52.873Z,83.41
2022-12-18T00:15:25.005Z,83.60
2022-12-18T00:15:57.201Z,83.50
2022-12-18T00:16:36.365Z,83.25
2022-12-18T00:17:08.497Z,83.45
2022-12-18T00:17:41.456Z,83.46
2022-12-18T00:18:20.421Z,83.17
2022-12-18T00:18:55.074Z,83.39
2022-12-18T00:19:27.180Z,83.15
2022-12-18T00:20:01.913Z,83.41
2022-12-18T00:20:37.885Z,83.20
2022-12-18T00:21:13.027Z,83.24
2022-12-18T00:21:47.953Z,83.32
2022-12-18T00:22:20.160Z,83.03
2022-12-18T00:22:52.620Z,83.12
2022-12-18T00:23:24.717Z,83.06
2022-12-18T00:23:59.976Z,83.34
2022-12-18T00:24:32.250Z,83.09
2022-12-18T00:25:05.165Z,83.02
2022-12-18T00:25:40.274Z,83.22
2022-12-18T00:26:16.160Z,83.30
2022-12-18T00:26:51.022Z,82.61
2022-12-18T00:27:25.900Z,82.78
2022-12-18T00:27:58.156Z,82.93
2022-12-18T00:28:31.314Z,82.69
2022-12-18T00:29:08.239Z,83.09
2022-12-18T00:29:40.355Z,82.67
2022-12-18T00:30:13.549Z,82.91
2022-12-18T00:30:48.263Z,83.08
2022-12-18T00:31:22.169Z,83.24
2022-12-18T00:31:54.550Z,83.00
2022-12-18T00:32:29.370Z,83.12
2022-12-18T00:33:01.691Z,82.47
2022-12-18T00:33:34.064Z,82.31
2022-12-18T00:34:08.797Z,82.37
2022-12-18T00:34:40.897Z,82.54
2022-12-18T00:35:14.695Z,82.50
2022-12-18T00:35:49.398Z,82.31
2022-12-18T00:36:23.548Z,82.28
2022-12-18T00:36:57.745Z,82.77
2022-12-18T00:37:32.444Z,82.84
2022-12-18T00:38:04.800Z,82.57
2022-12-18T00:38:37.751Z,82.76
2022-12-18T00:39:14.678Z,82.56
2022-12-18T00:39:50.675Z,82.81
2022-12-18T00:40:25.601Z,82.21
2022-12-18T00:41:02.311Z,82.31
2022-12-18T00:42:01.213Z,82.42
2022-12-18T00:42:53.280Z,82.30
2022-12-18T00:43:25.598Z,81.74
2022-12-18T00:43:58.595Z,81.68
2022-12-18T00:44:30.744Z,81.91
2022-12-18T00:45:12.107Z,81.71
2022-12-18T00:45:45.442Z,81.81
2022-12-18T00:46:17.714Z,81.96
2022-12-18T00:46:52.629Z,82.30
2022-12-18T00:47:24.786Z,81.81
2022-12-18T00:47:57.617Z,82.34
2022-12-18T00:48:32.649Z,82.23
2022-12-18T00:49:05.591Z,81.82
2022-12-18T00:49:37.757Z,81.75
2022-12-18T00:50:10.719Z,81.59
2022-12-18T00:50:45.579Z,81.73
2022-12-18T00:51:17.678Z,81.95
2022-12-18T00:51:50.450Z,82.09
2022-12-18T00:52:25.406Z,81.55
2022-12-18T00:52:57.556Z,81.66
2022-12-18T00:53:29.655Z,81.51
2022-12-18T00:54:04.728Z,81.89
2022-12-18T00:54:37.056Z,81.59
2022-12-18T00:55:09.486Z,81.46
2022-12-18T00:55:45.009Z,81.24
2022-12-18T00:56:17.513Z,81.32
2022-12-18T00:56:50.116Z,81.41
2022-12-18T00:57:25.513Z,81.49
2022-12-18T00:58:00.222Z,81.45
2022-12-18T00:58:32.797Z,81.50
2022-12-18T00:59:08.162Z,81.46
2022-12-18T00:59:40.384Z,81.76
2022-12-18T01:00:15.595Z,81.78
2022-12-18T01:00:50.436Z,81.63
2022-12-18T01:01:25.756Z,81.77
2022-12-18T01:02:00.805Z,81.80
2022-12-18T01:02:33.459Z,81.24
2022-12-18T01:03:08.734Z,81.73
2022-12-18T01:03:48.595Z,81.24
2022-12-18T01:04:21.977Z,81.04
2022-12-18T01:04:54.082Z,81.15
2022-12-18T01:05:28.833Z,81.52
2022-12-18T01:06:00.948Z,81.37
2022-12-18T01:06:33.101Z,81.66
2022-12-18T01:07:07.889Z,81.71
2022-12-18T01:07:40.657Z,81.32
2022-12-18T01:08:12.785Z,81.21
2022-12-18T01:08:48.241Z,81.66
2022-12-18T01:09:20.370Z,81.17
2022-12-18T01:09:54.031Z,81.31
2022-12-18T01:10:31.406Z,81.48
2022-12-18T01:11:08.790Z,81.69
2022-12-18T01:11:40.971Z,81.99
2022-12-18T01:12:15.695Z,82.04
2022-12-18T01:12:47.803Z,82.28
2022-12-18T01:13:22.555Z,82.19
2022-12-18T01:14:01.223Z,81.92
2022-12-18T01:14:33.381Z,82.06
2022-12-18T01:15:11.244Z,81.71
2022-12-18T01:15:52.169Z,81.25
2022-12-18T01:16:24.685Z,81.67
2022-12-18T01:16:56.924Z,81.21
2022-12-18T01:17:29.044Z,81.54
2022-12-18T01:18:03.959Z,81.80
2022-12-18T01:18:36.414Z,82.18
2022-12-18T01:19:08.565Z,82.38
2022-12-18T01:19:43.268Z,82.25
2022-12-18T01:20:16.175Z,81.96
2022-12-18T01:20:48.551Z,82.47
2022-12-18T01:21:23.928Z,82.32
2022-12-18T01:21:56.074Z,81.89
2022-12-18T01:22:28.316Z,82.00
2022-12-18T01:23:03.007Z,81.82
2022-12-18T01:23:35.373Z,81.60
2022-12-18T01:24:08.095Z,81.69
2022-12-18T01:24:42.758Z,81.97
2022-12-18T01:25:14.865Z,81.94
2022-12-18T01:25:46.974Z,81.79
2022-12-18T01:26:24.748Z,81.86
2022-12-18T01:26:58.334Z,81.95
2022-12-18T01:27:30.626Z,81.70
2022-12-18T01:28:03.110Z,81.61
2022-12-18T01:28:40.981Z,81.48
2022-12-18T01:29:13.318Z,81.47
2022-12-18T01:29:45.500Z,81.70
2022-12-18T01:30:20.414Z,81.42
2022-12-18T01:30:52.923Z,81.87
2022-12-18T01:31:27.666Z,81.41
2022-12-18T01:32:04.139Z,81.41
2022-12-18T01:32:36.370Z,81.34
2022-12-18T01:33:08.508Z,81.23
2022-12-18T01:33:41.644Z,81.19
2022-12-18T01:34:16.449Z,81.15
2022-12-18T01:34:48.589Z,80.99
2022-12-18T01:35:21.076Z,80.74
2022-12-18T01:35:55.889Z,81.08
2022-12-18T01:36:29.869Z,80.77
2022-12-18T01:37:04.111Z,81.06
2022-12-18T01:37:38.813Z,81.06
2022-12-18T01:38:11.196Z,81.04
2022-12-18T01:38:43.643Z,81.03
2022-12-18T01:39:19.446Z,80.89
2022-12-18T01:39:53.441Z,80.99
2022-12-18T01:40:25.982Z,81.20
2022-12-18T01:40:58.747Z,81.08
2022-12-18T01:41:55.472Z,80.50
2022-12-18T01:42:27.940Z,81.00
2022-12-18T01:43:00.073Z,80.69
2022-12-18T01:43:52.770Z,80.73
2022-12-18T01:44:55.818Z,80.69
2022-12-18T01:45:32.369Z,80.98
2022-12-18T01:46:04.649Z,80.90
2022-12-18T01:46:36.766Z,80.76
2022-12-18T01:47:09.059Z,80.89
2022-12-18T01:47:47.497Z,81.22
2022-12-18T01:48:20.349Z,81.59
2022-12-18T01:48:56.681Z,80.96
2022-12-18T01:49:30.092Z,81.13
2022-12-18T01:50:10.395Z,81.33
2022-12-18T01:50:44.106Z,81.47
2022-12-18T01:51:17.307Z,81.56
2022-12-18T01:51:52.034Z,81.24
2022-12-18T01:52:27.263Z,80.62
2022-12-18T01:53:03.471Z,80.76
2022-12-18T01:53:38.954Z,80.96
2022-12-18T01:54:11.358Z,80.63
2022-12-18T01:54:43.661Z,81.02
2022-12-18T01:55:19.483Z,80.91
2022-12-18T01:55:57.344Z,80.88
2022-12-18T01:56:29.544Z,80.44
2022-12-18T01:57:02.168Z,80.43
2022-12-18T01:57:37.391Z,80.18
2022-12-18T01:58:09.994Z,80.01
2022-12-18T01:58:52.823Z,80.36
2022-12-18T01:59:27.826Z,80.10
2022-12-18T02:00:04.844Z,80.53
2022-12-18T02:00:45.141Z,80.12
2022-12-18T02:01:20.357Z,80.71
2022-12-18T02:01:52.632Z,80.68
2022-12-18T02:02:25.190Z,80.69
2022-12-18T02:03:00.734Z,80.84
2022-12-18T02:03:33.238Z,80.87
2022-12-18T02:04:22.385Z,80.73
2022-12-18T02:04:57.111Z,80.50
2022-12-18T02:05:42.041Z,80.55
2022-12-18T02:06:23.485Z,80.39
2022-12-18T02:07:07.778Z,80.75
2022-12-18T02:07:47.966Z,80.02
2022-12-18T02:08:26.000Z,79.89
2022-12-18T02:09:07.083Z,80.32
2022-12-18T02:09:48.119Z,80.15
2022-12-18T02:10:28.546Z,80.69
2022-12-18T02:11:05.426Z,80.71
2022-12-18T02:11:53.226Z,80.92
2022-12-18T02:12:30.207Z,80.69
2022-12-18T02:13:12.704Z,80.84
2022-12-18T02:13:55.210Z,80.45
2022-12-18T02:14:37.680Z,80.39
2022-12-18T02:15:19.992Z,80.15
2022-12-18T02:16:05.077Z,80.29
2022-12-18T02:16:47.338Z,80.37
2022-12-18T02:17:22.509Z,80.56
2022-12-18T02:18:03.878Z,80.22
2022-12-18T02:18:39.662Z,80.73
2022-12-18T02:19:28.333Z,80.72
2022-12-18T02:20:14.980Z,80.57
2022-12-18T02:20:50.244Z,80.83
2022-12-18T02:21:29.917Z,80.71
2022-12-18T02:22:15.831Z,80.17
2022-12-18T02:23:04.948Z,80.27
2022-12-18T02:23:48.477Z,80.29
2022-12-18T02:24:34.974Z,80.56
2022-12-18T02:25:27.062Z,80.59
2022-12-18T02:26:10.390Z,80.64
2022-12-18T02:26:46.878Z,80.31
2022-12-18T02:27:22.565Z,80.46
2022-12-18T02:27:58.425Z,80.00
2022-12-18T02:28:35.825Z,79.95
2022-12-18T02:29:15.773Z,80.13
2022-12-18T02:29:57.622Z,80.36
2022-12-18T02:30:36.071Z,80.42
2022-12-18T02:31:15.491Z,80.16
2022-12-18T02:31:53.141Z,80.41
2022-12-18T02:32:31.315Z,80.34
2022-12-18T02:33:06.158Z,80.14
2022-12-18T02:33:41.374Z,80.31
2022-12-18T02:34:17.274Z,80.25
2022-12-18T02:34:51.853Z,80.02
2022-12-18T02:35:27.041Z,79.83
2022-12-18T02:36:05.456Z,79.73
2022-12-18T02:36:42.948Z,79.66
2022-12-18T02:37:19.417Z,79.95
2022-12-18T02:37:57.830Z,79.96
2022-12-18T02:38:32.474Z,79.76
2022-12-18T02:39:17.475Z,79.59
2022-12-18T02:40:05.881Z,79.76
2022-12-18T02:40:42.063Z,79.60
2022-12-18T02:41:21.191Z,79.91
2022-12-18T02:41:53.731Z,80.17
2022-12-18T02:42:29.456Z,79.80
2022-12-18T02:43:07.110Z,80.20
2022-12-18T02:43:39.641Z,80.27
2022-12-18T02:44:14.825Z,79.97
2022-12-18T02:44:55.261Z,79.86
2022-12-18T02:45:30.331Z,79.49
2022-12-18T02:46:26.863Z,79.39
2022-12-18T02:47:02.101Z,79.58
2022-12-18T02:47:39.394Z,79.65
2022-12-18T02:48:12.525Z,80.24
2022-12-18T02:48:44.880Z,80.18
2022-12-18T02:49:34.827Z,79.49
2022-12-18T02:50:14.849Z,79.73
2022-12-18T02:51:00.199Z,80.09
2022-12-18T02:51:44.005Z,80.34
2022-12-18T02:52:26.141Z,79.81
2022-12-18T02:53:13.991Z,80.01
2022-12-18T02:53:54.644Z,79.77
2022-12-18T02:54:40.234Z,79.97
2022-12-18T02:55:26.275Z,79.51
2022-12-18T02:56:08.328Z,79.75
2022-12-18T02:56:49.826Z,79.98
2022-12-18T02:57:37.318Z,80.00
2022-12-18T02:58:17.432Z,79.79
2022-12-18T02:59:00.047Z,79.88
2022-12-18T02:59:52.478Z,79.81
2022-12-18T03:00:28.146Z,79.78
2022-12-18T03:01:04.660Z,79.51
2022-12-18T03:01:45.746Z,79.56
2022-12-18T03:02:24.269Z,79.19
2022-12-18T03:03:07.963Z,79.23
2022-12-18T03:03:44.171Z,79.11
2022-12-18T03:04:25.321Z,79.43
2022-12-18T03:05:02.323Z,79.41
2022-12-18T03:05:43.393Z,79.53
2022-12-18T03:06:23.328Z,79.32
2022-12-18T03:06:59.309Z,79.47
2022-12-18T03:07:41.690Z,79.32
2022-12-18T03:08:20.425Z,79.57
2022-12-18T03:08:58.721Z,79.53
2022-12-18T03:09:39.003Z,79.64
2022-12-18T03:10:16.153Z,80.06
2022-12-18T03:10:54.677Z,79.87
2022-12-18T03:11:44.761Z,79.56
2022-12-18T03:12:26.614Z,79.80
2022-12-18T03:13:05.930Z,79.40
2022-12-18T03:13:46.531Z,79.01
2022-12-18T03:14:22.861Z,79.19
2022-12-18T03:15:03.508Z,79.18
2022-12-18T03:15:41.131Z,78.81
2022-12-18T03:16:24.048Z,79.15
2022-12-18T03:17:00.861Z,79.12
2022-12-18T03:17:37.531Z,79.09
2022-12-18T03:18:14.776Z,78.86
2022-12-18T03:18:51.820Z,78.45
2022-12-18T03:19:30.559Z,78.53
2022-12-18T03:20:05.748Z,78.96
2022-12-18T03:20:43.166Z,78.83
2022-12-18T03:21:23.685Z,79.01
2022-12-18T03:21:59.870Z,78.74
2022-12-18T03:22:35.067Z,78.88
2022-12-18T03:23:14.844Z,78.92
2022-12-18T03:23:52.878Z,79.13
2022-12-18T03:24:30.763Z,79.21
2022-12-18T03:25:06.015Z,78.87
2022-12-18T03:25:46.651Z,78.87
2022-12-18T03:26:27.054Z,79.33
2022-12-18T03:27:07.456Z,79.16
2022-12-18T03:27:49.563Z,79.02
2022-12-18T03:28:23.922Z,78.66
2022-12-18T03:29:10.093Z,78.72
2022-12-18T03:29:47.718Z,79.15
2022-12-18T03:30:26.003Z,79.11
2022-12-18T03:31:09.434Z,78.87
2022-12-18T03:31:51.731Z,78.88
2022-12-18T03:32:30.425Z,78.68
2022-12-18T03:33:13.869Z,78.74
2022-12-18T03:34:01.472Z,78.97
2022-12-18T03:34:45.507Z,78.71
2022-12-18T03:35:24.134Z,79.02
2022-12-18T03:36:01.521Z,79.00
2022-12-18T03:36:39.102Z,79.00
2022-12-18T03:37:11.705Z,79.00
2022-12-18T03:37:46.742Z,79.31
2022-12-18T03:38:22.035Z,78.65
2022-12-18T03:38:59.918Z,79.13
2022-12-18T03:39:33.893Z,78.96
2022-12-18T03:40:10.257Z,79.31
2022-12-18T03:40:52.414Z,78.90
2022-12-18T03:41:34.949Z,78.79
2022-12-18T03:42:32.223Z,78.92
2022-12-18T03:43:20.485Z,79.00
2022-12-18T03:44:00.702Z,78.71
2022-12-18T03:44:42.124Z,78.76
2022-12-18T03:45:23.515Z,78.48
2022-12-18T03:46:06.363Z,78.34
2022-12-18T03:46:48.160Z,77.89
2022-12-18T03:47:28.911Z,77.96
2022-12-18T03:48:13.430Z,78.14
2022-12-18T03:48:53.585Z,77.97
2022-12-18T03:49:34.777Z,77.99
2022-12-18T03:50:16.459Z,77.92
2022-12-18T03:50:59.650Z,77.84
2022-12-18T03:51:42.980Z,78.23
2022-12-18T03:52:21.757Z,78.24
2022-12-18T03:53:03.022Z,78.07
2022-12-18T03:53:41.578Z,78.17
2022-12-18T03:54:16.063Z,78.28
2022-12-18T03:54:58.436Z,78.36
2022-12-18T03:55:36.663Z,78.34
2022-12-18T03:56:12.994Z,78.23
2022-12-18T03:56:54.939Z,78.05
2022-12-18T03:57:30.784Z,77.95
2022-12-18T03:58:06.537Z,77.24
2022-12-18T03:58:59.989Z,77.29
2022-12-18T03:59:36.363Z,77.47
2022-12-18T04:00:17.450Z,77.53
2022-12-18T04:01:17.959Z,76.85
2022-12-18T04:01:56.581Z,77.33
2022-12-18T04:02:31.651Z,77.01
2022-12-18T04:03:07.173Z,77.46
2022-12-18T04:03:52.009Z,77.09
2022-12-18T04:04:26.842Z,76.82
2022-12-18T04:05:04.098Z,77.36
2022-12-18T04:05:40.729Z,77.23
2022-12-18T04:06:15.065Z,77.14
2022-12-18T04:06:50.456Z,77.04
2022-12-18T04:07:29.626Z,76.97
2022-12-18T04:08:04.272Z,77.10
2022-12-18T04:08:41.082Z,77.20
2022-12-18T04:09:18.956Z,77.37
2022-12-18T04:09:59.336Z,77.45
2022-12-18T04:10:32.746Z,77.15
2022-12-18T04:11:10.351Z,77.37
2022-12-18T04:11:44.878Z,77.32
2022-12-18T04:12:19.095Z,77.48
2022-12-18T04:12:59.681Z,77.22
2022-12-18T04:13:35.845Z,77.72
2022-12-18T04:14:18.212Z,77.56
2022-12-18T04:14:53.736Z,77.30
2022-12-18T04:15:26.157Z,77.43
2022-12-18T04:16:03.310Z,77.15
2022-12-18T04:16:35.506Z,77.00
2022-12-18T04:17:09.714Z,76.55
2022-12-18T04:17:53.361Z,76.71
2022-12-18T04:18:29.518Z,77.02
2022-12-18T04:19:01.979Z,76.71
2022-12-18T04:19:39.499Z,77.18
2022-12-18T04:20:13.265Z,76.93
2022-12-18T04:20:48.759Z,76.66
2022-12-18T04:21:25.793Z,76.54
2022-12-18T04:22:00.498Z,76.06
2022-12-18T04:22:33.510Z,76.55
2022-12-18T04:23:08.243Z,76.27
2022-12-18T04:23:43.434Z,76.65
2022-12-18T04:24:15.972Z,76.51
2022-12-18T04:24:57.368Z,76.69
2022-12-18T04:25:40.107Z,76.89
2022-12-18T04:26:18.204Z,76.92
2022-12-18T04:27:13.623Z,76.60
2022-12-18T04:27:49.848Z,76.79
2022-12-18T04:28:22.248Z,76.86
2022-12-18T04:28:57.011Z,76.80
2022-12-18T04:29:32.107Z,76.75
2022-12-18T04:30:08.977Z,76.57
2022-12-18T04:30:43.821Z,76.55
2022-12-18T04:31:16.325Z,76.80
2022-12-18T04:31:48.621Z,76.64
2022-12-18T04:32:24.218Z,76.35
2022-12-18T04:32:56.900Z,76.53
2022-12-18T04:33:32.081Z,76.41
2022-12-18T04:34:07.642Z,76.34
2022-12-18T04:34:45.700Z,76.32
2022-12-18T04:35:18.013Z,76.26
2022-12-18T04:35:53.398Z,76.03
2022-12-18T04:36:25.596Z,76.14
2022-12-18T04:36:58.408Z,76.72
2022-12-18T04:37:34.193Z,76.41
2022-12-18T04:38:07.076Z,76.13
2022-12-18T04:38:41.866Z,76.32
2022-12-18T04:39:19.671Z,76.12
2022-12-18T04:39:54.021Z,75.88
2022-12-18T04:40:35.329Z,76.04
2022-12-18T04:41:09.334Z,75.59
2022-12-18T04:41:42.261Z,75.62
2022-12-18T04:42:17.471Z,76.18
2022-12-18T04:42:49.719Z,75.46
2022-12-18T04:43:22.000Z,75.60
2022-12-18T04:43:56.731Z,75.66
2022-12-18T04:44:31.616Z,75.69
2022-12-18T04:45:04.453Z,75.78
2022-12-18T04:45:39.483Z,75.82
2022-12-18T04:46:12.941Z,75.68
2022-12-18T04:46:45.167Z,75.64
2022-12-18T04:47:20.047Z,75.77
2022-12-18T04:47:52.259Z,76.07
2022-12-18T04:48:24.412Z,75.92
2022-12-18T04:48:56.509Z,75.76
2022-12-18T04:49:31.269Z,75.34
2022-12-18T04:50:03.495Z,75.12
2022-12-18T04:50:35.791Z,75.53
2022-12-18T04:51:08.406Z,74.97
2022-12-18T04:51:43.311Z,74.92
2022-12-18T04:52:15.871Z,75.17
2022-12-18T04:52:47.995Z,75.09
2022-12-18T04:53:22.739Z,75.66
2022-12-18T04:53:55.242Z,75.06
2022-12-18T04:54:27.318Z,75.45
2022-12-18T04:55:02.089Z,75.08
2022-12-18T04:55:34.268Z,75.60
2022-12-18T04:56:08.781Z,75.54
2022-12-18T04:56:46.268Z,75.77
2022-12-18T04:57:19.527Z,75.93
2022-12-18T04:57:51.693Z,75.40
2022-12-18T04:58:26.571Z,75.64
2022-12-18T04:58:58.768Z,75.50
2022-12-18T04:59:33.453Z,75.61
2022-12-18T05:00:09.809Z,75.82
2022-12-18T05:00:41.953Z,75.59
2022-12-18T05:01:16.639Z,75.83
2022-12-18T05:01:51.711Z,75.47
2022-12-18T05:02:24.146Z,75.60
2022-12-18T05:02:56.482Z,75.28
2022-12-18T05:03:31.514Z,74.92
2022-12-18T05:04:04.412Z,74.91
2022-12-18T05:04:36.689Z,75.23
2022-12-18T05:05:14.386Z,74.80
2022-12-18T05:05:46.952Z,75.01
2022-12-18T05:06:19.065Z,74.75
2022-12-18T05:06:53.773Z,75.09
2022-12-18T05:07:27.835Z,75.13
2022-12-18T05:07:59.939Z,75.10
2022-12-18T05:08:32.649Z,75.21
2022-12-18T05:09:07.511Z,75.32
2022-12-18T05:09:39.633Z,75.13
2022-12-18T05:10:11.981Z,75.28
2022-12-18T05:10:44.238Z,75.40
2022-12-18T05:11:19.481Z,75.01
2022-12-18T05:11:51.595Z,75.32
2022-12-18T05:12:25.279Z,74.76
2022-12-18T05:13:02.646Z,74.88
2022-12-18T05:13:41.336Z,75.06
2022-12-18T05:14:13.914Z,75.17
2022-12-18T05:14:48.996Z,75.27
2022-12-18T05:15:23.952Z,75.13
2022-12-18T05:15:56.807Z,74.77
2022-12-18T05:16:29.045Z,74.89
2022-12-18T05:17:03.771Z,74.66
2022-12-18T05:17:35.864Z,74.68
2022-12-18T05:18:07.976Z,74.64
2022-12-18T05:18:40.725Z,74.78
2022-12-18T05:19:15.594Z,74.90
2022-12-18T05:19:47.714Z,75.33
2022-12-18T05:20:20.175Z,75.27
2022-12-18T05:20:55.896Z,75.33
2022-12-18T05:21:28.020Z,75.41
2022-12-18T05:22:00.142Z,75.52
2022-12-18T05:22:35.973Z,75.63
2022-12-18T05:23:08.084Z,75.69
2022-12-18T05:23:40.576Z,75.44
2022-12-18T05:24:15.671Z,75.64
2022-12-18T05:24:48.161Z,75.10
2022-12-18T05:25:22.066Z,74.84
2022-12-18T05:25:58.529Z,74.92
2022-12-18T05:26:30.647Z,75.05
2022-12-18T05:27:07.656Z,75.23
2022-12-18T05:27:39.782Z,75.61
2022-12-18T05:28:17.594Z,75.18
2022-12-18T05:28:49.720Z,75.29
2022-12-18T05:29:22.132Z,75.42
2022-12-18T05:29:59.477Z,75.39
2022-12-18T05:30:31.581Z,75.12
2022-12-18T05:31:05.625Z,74.94
2022-12-18T05:31:40.699Z,74.85
2022-12-18T05:32:14.315Z,74.86
2022-12-18T05:32:46.437Z,74.70
2022-12-18T05:33:18.758Z,74.88
2022-12-18T05:33:53.509Z,74.82
2022-12-18T05:34:28.523Z,74.76
2022-12-18T05:35:00.678Z,74.75
2022-12-18T05:35:34.633Z,74.91
2022-12-18T05:36:12.432Z,74.94
2022-12-18T05:36:44.706Z,75.23
2022-12-18T05:37:18.019Z,75.24
2022-12-18T05:37:52.742Z,75.13
2022-12-18T05:38:26.605Z,75.28
2022-12-18T05:38:59.112Z,74.69
2022-12-18T05:39:33.914Z,74.42
2022-12-18T05:40:07.699Z,74.58
2022-12-18T05:40:43.583Z,74.71
2022-12-18T05:41:20.123Z,74.58
2022-12-18T05:41:52.234Z,74.51
2022-12-18T05:42:24.388Z,74.66
2022-12-18T05:43:00.217Z,75.06
2022-12-18T05:43:34.949Z,74.75
2022-12-18T05:44:08.510Z,74.25
2022-12-18T05:44:43.212Z,74.35
2022-12-18T05:45:19.215Z,74.69
2022-12-18T05:45:52.497Z,74.60
2022-12-18T05:46:30.804Z,74.48
2022-12-18T05:47:03.014Z,74.86
2022-12-18T05:47:35.548Z,74.90
2022-12-18T05:48:11.091Z,74.21
2022-12-18T05:48:43.889Z,73.76
2022-12-18T05:49:15.993Z,73.77
2022-12-18T05:49:50.728Z,73.52
2022-12-18T05:50:22.822Z,73.75
2022-12-18T05:50:54.896Z,73.69
2022-12-18T05:51:31.393Z,73.56
2022-12-18T05:52:03.508Z,73.64
2022-12-18T05:52:35.602Z,73.64
2022-12-18T05:53:11.712Z,73.23
2022-12-18T05:53:44.080Z,73.21
2022-12-18T05:54:16.336Z,73.43
2022-12-18T05:54:51.031Z,73.73
2022-12-18T05:55:23.153Z,74.12
2022-12-18T05:55:55.927Z,73.91
2022-12-18T05:56:30.619Z,73.56
2022-12-18T05:57:02.823Z,74.32
2022-12-18T05:57:34.989Z,74.10
2022-12-18T05:58:10.889Z,73.97
2022-12-18T05:58:43.443Z,74.48
2022-12-18T05:59:15.634Z,74.47
2022-12-18T05:59:50.359Z,74.21
2022-12-18T06:00:29.236Z,74.92
2022-12-18T06:01:08.159Z,74.75
2022-12-18T06:01:44.299Z,74.63
2022-12-18T06:02:16.641Z,74.19
2022-12-18T06:02:49.050Z,74.39
2022-12-18T06:03:26.832Z,74.26
2022-12-18T06:04:01.479Z,74.33
2022-12-18T06:04:34.013Z,74.12
2022-12-18T06:05:10.160Z,74.24
2022-12-18T06:05:44.486Z,73.85
2022-12-18T06:06:18.003Z,74.25
2022-12-18T06:06:52.826Z,74.24
2022-12-18T06:07:26.117Z,74.33
2022-12-18T06:07:58.411Z,74.40
2022-12-18T06:08:33.325Z,74.38
2022-12-18T06:09:09.351Z,74.26
2022-12-18T06:09:44.812Z,74.47
2022-12-18T06:10:19.709Z,74.29
2022-12-18T06:10:53.544Z,74.18
2022-12-18T06:11:27.081Z,74.21
2022-12-18T06:12:01.891Z,73.86
2022-12-18T06:12:34.592Z,73.73
2022-12-18T06:13:08.059Z,73.97
2022-12-18T06:13:43.258Z,73.89
2022-12-18T06:14:18.302Z,74.08
2022-12-18T06:14:50.450Z,74.13
2022-12-18T06:15:27.740Z,74.05
2022-12-18T06:16:05.891Z,74.17
2022-12-18T06:16:38.240Z,74.12
2022-12-18T06:17:15.922Z,73.43
2022-12-18T06:17:48.017Z,73.63
2022-12-18T06:18:20.131Z,73.63
2022-12-18T06:18:54.944Z,73.97
2022-12-18T06:19:27.255Z,74.05
2022-12-18T06:19:59.891Z,73.85
2022-12-18T06:20:34.775Z,73.77
2022-12-18T06:21:09.147Z,73.97
2022-12-18T06:21:41.245Z,73.66
2022-12-18T06:22:17.082Z,73.61
2022-12-18T06:22:49.318Z,73.90
2022-12-18T06:23:21.773Z,74.01
2022-12-18T06:23:56.646Z,73.97
2022-12-18T06:24:29.196Z,74.23
2022-12-18T06:25:01.458Z,73.97
2022-12-18T06:25:36.958Z,73.77
2022-12-18T06:26:10.907Z,73.80
2022-12-18T06:26:43.101Z,74.11
2022-12-18T06:27:18.172Z,73.80
2022-12-18T06:27:50.256Z,74.09
2022-12-18T06:28:22.593Z,74.24
2022-12-18T06:28:57.492Z,74.09
2022-12-18T06:29:29.900Z,74.44
2022-12-18T06:30:03.053Z,74.53
2022-12-18T06:30:41.126Z,74.60
2022-12-18T06:31:13.672Z,74.63
2022-12-18T06:31:45.939Z,74.11
2022-12-18T06:32:20.824Z,73.95
2022-12-18T06:32:56.738Z,73.57
2022-12-18T06:33:29.457Z,73.55
2022-12-18T06:34:08.890Z,73.67
2022-12-18T06:34:41.234Z,73.62
2022-12-18T06:35:16.475Z,73.11
2022-12-18T06:35:51.225Z,73.47
2022-12-18T06:36:23.439Z,73.87
2022-12-18T06:36:55.545Z,73.77
2022-12-18T06:37:30.641Z,73.47
2022-12-18T06:38:02.852Z,73.30
2022-12-18T06:38:36.085Z,73.94
2022-12-18T06:39:11.000Z,73.46
2022-12-18T06:39:43.285Z,73.49
2022-12-18T06:40:15.597Z,73.11
2022-12-18T06:40:47.839Z,73.31
2022-12-18T06:41:24.898Z,73.47
2022-12-18T06:41:57.192Z,73.00
2022-12-18T06:42:30.029Z,73.18
2022-12-18T06:43:07.144Z,73.24
2022-12-18T06:43:42.156Z,73.01
2022-12-18T06:44:14.726Z,72.80
2022-12-18T06:44:49.433Z,72.85
2022-12-18T06:45:21.537Z,73.21
2022-12-18T06:46:01.806Z,73.09
2022-12-18T06:46:36.826Z,73.61
2022-12-18T06:47:08.938Z,73.70
2022-12-18T06:47:41.181Z,73.91
2022-12-18T06:48:15.858Z,73.69
2022-12-18T06:48:50.095Z,73.29
2022-12-18T06:49:25.079Z,73.40
2022-12-18T06:50:03.532Z,73.24
2022-12-18T06:50:35.747Z,73.56
2022-12-18T06:51:07.966Z,73.38
2022-12-18T06:51:44.261Z,73.49
2022-12-18T06:52:17.716Z,73.44
2022-12-18T06:52:49.820Z,73.30
2022-12-18T06:53:24.686Z,73.55
2022-12-18T06:53:57.202Z,73.48
2022-12-18T06:54:31.574Z,73.43
2022-12-18T06:55:07.430Z,73.20
2022-12-18T06:55:39.626Z,72.91
2022-12-18T06:56:12.220Z,73.04
2022-12-18T06:56:49.008Z,73.10
2022-12-18T06:57:21.131Z,73.44
2022-12-18T06:57:53.364Z,73.19
2022-12-18T06:58:28.154Z,73.63
2022-12-18T06:59:00.303Z,73.24
2022-12-18T06:59:35.023Z,73.22
2022-12-18T07:00:08.831Z,72.85
2022-12-18T07:00:41.098Z,73.27
2022-12-18T07:01:18.515Z,73.04
2022-12-18T07:01:50.919Z,73.03
2022-12-18T07:02:24.742Z,72.79
2022-12-18T07:02:59.583Z,72.63
2022-12-18T07:03:32.187Z,72.43
2022-12-18T07:04:04.335Z,72.53
2022-12-18T07:04:39.579Z,72.79
2022-12-18T07:05:11.669Z,72.96
2022-12-18T07:05:43.747Z,72.94
2022-12-18T07:06:23.694Z,72.52
2022-12-18T07:06:55.905Z,73.10
2022-12-18T07:07:28.041Z,72.82
2022-12-18T07:08:03.425Z,73.06
2022-12-18T07:08:35.871Z,72.77
2022-12-18T07:09:08.106Z,73.15
2022-12-18T07:09:43.021Z,73.02
2022-12-18T07:10:15.144Z,73.07
2022-12-18T07:10:50.672Z,73.56
2022-12-18T07:11:28.022Z,73.64
2022-12-18T07:12:00.389Z,73.51
2022-12-18T07:12:32.524Z,73.56
2022-12-18T07:13:07.741Z,73.58
2022-12-18T07:13:40.377Z,73.51
2022-12-18T07:14:12.669Z,73.43
2022-12-18T07:14:50.168Z,72.75
2022-12-18T07:15:22.308Z,72.71
2022-12-18T07:15:54.444Z,73.07
2022-12-18T07:16:32.165Z,73.21
2022-12-18T07:17:07.598Z,73.25
2022-12-18T07:17:42.727Z,73.28
2022-12-18T07:18:17.449Z,73.43
2022-12-18T07:18:58.437Z,73.65
2022-12-18T07:19:33.518Z,72.66
2022-12-18T07:20:06.691Z,72.86
2022-12-18T07:20:38.869Z,73.04
2022-12-18T07:21:15.522Z,73.15
2022-12-18T07:21:47.736Z,73.37
2022-12-18T07:22:19.836Z,73.73
2022-12-18T07:22:57.142Z,73.64
2022-12-18T07:23:29.352Z,73.49
2022-12-18T07:24:01.593Z,73.43
2022-12-18T07:24:36.724Z,73.60
2022-12-18T07:25:09.668Z,73.91
2022-12-18T07:25:41.920Z,73.66
2022-12-18T07:26:18.329Z,73.58
2022-12-18T07:26:50.665Z,73.80
2022-12-18T07:27:23.290Z,73.38
2022-12-18T07:27:55.878Z,73.43
2022-12-18T07:28:30.612Z,73.58
2022-12-18T07:29:02.879Z,73.68
2022-12-18T07:29:35.019Z,74.18
2022-12-18T07:30:11.745Z,73.89
2022-12-18T07:30:43.873Z,74.38
2022-12-18T07:31:20.212Z,74.15
2022-12-18T07:31:59.218Z,74.25
2022-12-18T07:32:31.950Z,74.14
2022-12-18T07:33:04.202Z,74.69
2022-12-18T07:33:39.791Z,74.49
2022-12-18T07:34:13.093Z,74.86
2022-12-18T07:34:45.306Z,74.75
2022-12-18T07:35:25.027Z,74.38
2022-12-18T07:35:57.559Z,74.34
2022-12-18T07:36:32.271Z,74.23
2022-12-18T07:37:04.627Z,74.11
2022-12-18T07:37:36.801Z,74.50
2022-12-18T07:38:11.535Z,74.56
2022-12-18T07:38:44.026Z,74.52
2022-12-18T07:39:16.418Z,74.37
2022-12-18T07:39:51.172Z,74.63
2022-12-18T07:40:23.859Z,74.85
2022-12-18T07:40:56.135Z,74.48
2022-12-18T07:41:30.839Z,74.70